Time;durP1;ratioP1;P1;durP2;ratioP2;P2;SDS_P1;SDS_P2;PMS_P1;PMS_P2;Temp;Humidity;BMP_temperature;BMP_pressure;BME280_temperature;BME280_humidity;BME280_pressure;Samples;Min_cycle;Max_cycle;Signal;HPM_P1;HPM_P2
2023/02/03 00:01:53;;;;;;;4.97;1.15;;;8.00;99.90;;;;;;5094138;28;20420;-85
2023/02/03 00:04:20;;;;;;;7.97;1.35;;;8.10;99.90;;;;;;5127919;28;20123;-85
2023/02/03 00:06:47;;;;;;;11.50;1.60;;;8.10;99.90;;;;;;5110275;28;20036;-85
2023/02/03 00:09:14;;;;;;;6.95;1.70;;;8.10;99.90;;;;;;5110531;28;20494;-85
2023/02/03 00:11:40;;;;;;;7.38;1.50;;;8.10;99.90;;;;;;5093892;28;20044;-85
2023/02/03 00:14:07;;;;;;;3.90;1.38;;;8.10;99.90;;;;;;5093713;28;20032;-85
2023/02/03 00:16:34;;;;;;;7.63;2.00;;;8.10;99.90;;;;;;5110726;28;20040;-85
2023/02/03 00:19:01;;;;;;;3.08;1.27;;;8.10;99.90;;;;;;5093410;28;20113;-85
2023/02/03 00:21:29;;;;;;;5.05;1.30;;;8.10;99.90;;;;;;5110799;28;20052;-85
2023/02/03 00:23:55;;;;;;;6.43;1.50;;;8.10;99.90;;;;;;5110308;28;20040;-85
2023/02/03 00:26:24;;;;;;;8.65;1.33;;;8.10;99.90;;;;;;5110673;28;20063;-85
2023/02/03 00:28:51;;;;;;;7.88;1.30;;;8.10;99.90;;;;;;5109959;28;20557;-86
2023/02/03 00:31:21;;;;;;;4.38;1.42;;;8.10;99.90;;;;;;5127579;28;20036;-85
2023/02/03 00:33:52;;;;;;;5.30;1.45;;;8.10;99.90;;;;;;5110113;28;20063;-85
2023/02/03 00:36:19;;;;;;;9.38;1.67;;;8.10;99.90;;;;;;5110228;28;20054;-86
2023/02/03 00:38:47;;;;;;;6.85;1.40;;;8.20;99.90;;;;;;5109937;28;20492;-85
2023/02/03 00:41:14;;;;;;;8.95;1.55;;;8.20;99.90;;;;;;5093593;28;20032;-85
2023/02/03 00:43:41;;;;;;;10.73;1.42;;;8.20;99.90;;;;;;5093647;28;20051;-85
2023/02/03 00:46:08;;;;;;;3.80;1.30;;;8.20;99.90;;;;;;5126708;28;20032;-85
2023/02/03 00:48:35;;;;;;;5.25;1.40;;;8.20;99.90;;;;;;5126753;28;20043;-86
2023/02/03 00:51:01;;;;;;;6.82;1.60;;;8.20;99.90;;;;;;5126339;28;20048;-85
2023/02/03 00:53:28;;;;;;;7.97;1.70;;;8.20;99.90;;;;;;5109835;28;20036;-85
2023/02/03 00:55:55;;;;;;;9.40;1.90;;;8.20;99.90;;;;;;5092939;28;20133;-85
2023/02/03 00:58:21;;;;;;;6.95;1.50;;;8.20;99.90;;;;;;5093309;28;20044;-85
2023/02/03 01:00:48;;;;;;;4.75;1.40;;;8.20;99.90;;;;;;5126347;28;20127;-85
2023/02/03 01:03:16;;;;;;;11.75;1.80;;;8.20;99.90;;;;;;5109656;28;20032;-85
2023/02/03 01:05:42;;;;;;;5.30;1.38;;;8.20;99.90;;;;;;5109477;28;20127;-85
2023/02/03 01:08:09;;;;;;;6.85;1.45;;;8.20;99.90;;;;;;5109175;28;20480;-85
2023/02/03 01:10:37;;;;;;;5.18;1.35;;;8.20;99.90;;;;;;5092953;28;20043;-85
2023/02/03 01:13:04;;;;;;;5.40;1.42;;;8.20;99.90;;;;;;5125334;28;20063;-86
2023/02/03 01:15:31;;;;;;;5.50;1.50;;;8.20;99.90;;;;;;5109806;28;20028;-85
2023/02/03 01:17:58;;;;;;;6.72;1.40;;;8.20;99.90;;;;;;5109305;28;20152;-85
2023/02/03 01:20:24;;;;;;;7.90;1.92;;;8.20;99.90;;;;;;5092612;28;20048;-85
2023/02/03 01:22:51;;;;;;;6.75;1.55;;;8.20;99.90;;;;;;5109301;28;20075;-85
2023/02/03 01:25:18;;;;;;;9.20;1.58;;;8.20;99.90;;;;;;5093019;28;20040;-86
2023/02/03 01:27:44;;;;;;;6.43;1.63;;;8.20;99.90;;;;;;5092827;28;20039;-85
2023/02/03 01:30:11;;;;;;;6.32;1.67;;;8.20;99.90;;;;;;5092059;28;20471;-85
2023/02/03 01:32:38;;;;;;;4.78;1.40;;;8.20;99.90;;;;;;5109617;28;20040;-85
2023/02/03 01:35:05;;;;;;;6.07;1.50;;;8.20;99.90;;;;;;5109278;28;20043;-85
2023/02/03 01:37:32;;;;;;;5.88;1.77;;;8.20;99.90;;;;;;5109448;28;20044;-85
2023/02/03 01:39:58;;;;;;;6.40;1.60;;;8.20;99.90;;;;;;5092162;28;20036;-86
2023/02/03 01:42:25;;;;;;;6.65;1.63;;;8.20;99.90;;;;;;5092552;28;20044;-85
2023/02/03 01:44:52;;;;;;;7.95;1.60;;;8.20;99.90;;;;;;5109429;28;20130;-86
2023/02/03 01:47:22;;;;;;;8.13;1.48;;;8.20;99.90;;;;;;5109184;28;20039;-85
2023/02/03 01:49:57;;;;;;;8.98;1.70;;;8.20;99.90;;;;;;5125706;28;20036;-85
2023/02/03 01:52:24;;;;;;;7.47;1.58;;;8.20;99.90;;;;;;5108806;28;20040;-85
2023/02/03 01:54:54;;;;;;;5.00;1.40;;;8.20;99.90;;;;;;5108992;28;20077;-85
2023/02/03 01:57:35;;;;;;;7.40;1.40;;;8.20;99.90;;;;;;5109002;28;20526;-86
2023/02/03 02:00:05;;;;;;;7.75;2.33;;;8.20;99.90;;;;;;5108579;28;20097;-85
2023/02/03 02:02:32;;;;;;;14.18;1.70;;;8.20;99.90;;;;;;5108984;28;20051;-85
2023/02/03 02:05:06;;;;;;;4.95;1.20;;;8.30;99.90;;;;;;5091888;28;20071;-85
2023/02/03 02:07:35;;;;;;;9.18;1.58;;;8.30;99.90;;;;;;5126219;28;20512;-86
2023/02/03 02:10:03;;;;;;;6.60;1.50;;;8.30;99.90;;;;;;5125594;28;20039;-85
2023/02/03 02:12:30;;;;;;;6.32;1.70;;;8.20;99.90;;;;;;5108825;28;20079;-85
2023/02/03 02:14:57;;;;;;;4.45;1.50;;;8.20;99.90;;;;;;5092152;28;20075;-86
2023/02/03 02:18:02;;;;;;;8.65;1.50;;;8.20;99.90;;;;;;5092166;28;20051;-85
2023/02/03 02:20:36;;;;;;;7.35;1.60;;;8.20;99.90;;;;;;5125356;28;20048;-86
2023/02/03 02:23:53;;;;;;;9.13;1.52;;;8.30;99.90;;;;;;5143884;28;20051;-86
2023/02/03 02:26:23;;;;;;;11.13;2.28;;;8.30;99.90;;;;;;5112303;28;20093;-85
2023/02/03 02:29:09;;;;;;;9.32;1.77;;;8.30;99.90;;;;;;5129685;28;20068;-85
2023/02/03 02:32:05;;;;;;;7.43;1.60;;;8.30;99.90;;;;;;5129594;28;20515;-85
2023/02/03 02:35:00;;;;;;;6.77;1.53;;;8.20;99.90;;;;;;5111734;28;20048;-85
2023/02/03 02:38:02;;;;;;;6.82;1.70;;;8.30;99.90;;;;;;5129310;28;20810;-85
2023/02/03 02:40:59;;;;;;;7.65;1.90;;;8.30;99.90;;;;;;5112329;28;20488;-85
2023/02/03 02:44:14;;;;;;;8.95;1.85;;;8.30;99.90;;;;;;5097890;28;20083;-86
2023/02/03 02:46:48;;;;;;;8.75;1.92;;;8.30;99.90;;;;;;5112217;28;20476;-85
2023/02/03 02:49:21;;;;;;;5.40;1.63;;;8.30;99.90;;;;;;5111911;28;20122;-85
2023/02/03 02:51:49;;;;;;;9.85;2.20;;;8.30;99.90;;;;;;5112246;28;20040;-85
2023/02/03 02:54:19;;;;;;;8.10;1.38;;;8.30;99.90;;;;;;5128852;28;20049;-86
2023/02/03 02:56:51;;;;;;;7.63;1.70;;;8.20;99.90;;;;;;5128999;28;20054;-85
2023/02/03 02:59:18;;;;;;;7.38;1.42;;;8.30;99.90;;;;;;5095883;28;20123;-85
2023/02/03 03:01:44;;;;;;;7.82;1.80;;;8.30;99.90;;;;;;5117735;28;20799;-85
2023/02/03 03:04:14;;;;;;;8.98;1.77;;;8.30;99.90;;;;;;5108173;28;20055;-85
2023/02/03 03:06:48;;;;;;;8.68;1.60;;;8.20;99.90;;;;;;5091894;28;20040;-85
2023/02/03 03:09:24;;;;;;;6.75;1.60;;;8.30;99.90;;;;;;5107780;28;20036;-85
2023/02/03 03:12:02;;;;;;;7.47;1.55;;;8.30;99.90;;;;;;5092015;28;20037;-85
2023/02/03 03:14:31;;;;;;;7.80;1.88;;;8.30;99.90;;;;;;5095023;28;20381;-85
2023/02/03 03:17:01;;;;;;;6.60;1.73;;;8.30;99.90;;;;;;5111764;28;20047;-85
2023/02/03 03:19:36;;;;;;;6.75;1.50;;;8.30;99.90;;;;;;5111388;28;20051;-86
2023/02/03 03:22:06;;;;;;;13.10;2.63;;;8.30;99.90;;;;;;5111770;28;20048;-85
2023/02/03 03:24:54;;;;;;;6.88;1.58;;;8.30;99.90;;;;;;5128372;28;20051;-85
2023/02/03 03:27:36;;;;;;;8.43;1.50;;;8.30;99.90;;;;;;5111160;28;20055;-85
2023/02/03 03:30:09;;;;;;;8.98;1.60;;;8.30;99.90;;;;;;5111616;28;20050;-84
2023/02/03 03:32:37;;;;;;;11.25;1.92;;;8.30;99.90;;;;;;5111233;28;20048;-85
2023/02/03 03:35:05;;;;;;;8.68;1.40;;;8.30;99.90;;;;;;5110275;28;20105;-85
2023/02/03 03:37:44;;;;;;;10.95;1.80;;;8.30;99.90;;;;;;5128321;28;20055;-86
2023/02/03 03:40:29;;;;;;;6.85;1.67;;;8.30;99.90;;;;;;5111203;28;20113;-85
2023/02/03 03:43:07;;;;;;;10.10;2.10;;;8.30;99.90;;;;;;5110884;28;20102;-85
2023/02/03 03:45:37;;;;;;;6.40;1.52;;;8.30;99.90;;;;;;5111537;28;20029;-85
2023/02/03 03:48:15;;;;;;;8.43;1.48;;;8.30;99.90;;;;;;5111222;28;20467;-85
2023/02/03 03:50:54;;;;;;;8.88;1.55;;;8.30;99.90;;;;;;5111043;28;20085;-85
2023/02/03 03:53:22;;;;;;;7.03;1.75;;;8.30;99.90;;;;;;5127865;28;20051;-85
2023/02/03 03:55:51;;;;;;;9.60;1.85;;;8.30;99.90;;;;;;5094234;28;20442;-85
2023/02/03 03:58:25;;;;;;;10.63;1.63;;;8.30;99.90;;;;;;5127754;28;20036;-85
2023/02/03 04:00:56;;;;;;;11.75;1.90;;;8.30;99.90;;;;;;5108514;28;20040;-85
2023/02/03 04:03:28;;;;;;;12.32;1.92;;;8.30;99.90;;;;;;5092953;28;20840;-85
2023/02/03 04:05:55;;;;;;;12.63;2.35;;;8.20;99.90;;;;;;5109070;28;20120;-85
2023/02/03 04:08:21;;;;;;;7.65;2.15;;;8.30;99.90;;;;;;5063229;28;20141;-85
2023/02/03 04:10:48;;;;;;;11.55;2.05;;;8.30;99.90;;;;;;5094501;28;20132;-84
2023/02/03 04:13:18;;;;;;;9.00;1.88;;;8.30;99.90;;;;;;5096838;28;20028;-85
2023/02/03 04:15:45;;;;;;;13.55;2.47;;;8.30;99.90;;;;;;5117009;28;20032;-85
2023/02/03 04:18:13;;;;;;;8.32;1.90;;;8.30;99.90;;;;;;5099969;28;20101;-85
2023/02/03 04:20:41;;;;;;;10.13;1.75;;;8.30;99.90;;;;;;5114865;28;20505;-85
2023/02/03 04:23:08;;;;;;;7.72;1.52;;;8.20;99.90;;;;;;5099719;28;20496;-85
2023/02/03 04:25:34;;;;;;;10.77;2.00;;;8.20;99.90;;;;;;5107188;28;20024;-85
2023/02/03 04:28:01;;;;;;;10.70;1.60;;;8.20;99.90;;;;;;5107113;28;20033;-85
2023/02/03 04:30:28;;;;;;;12.88;2.38;;;8.30;99.90;;;;;;5096807;28;20573;-85
2023/02/03 04:32:55;;;;;;;10.13;1.85;;;8.30;99.90;;;;;;5088687;28;20424;-85
2023/02/03 04:35:21;;;;;;;7.82;1.77;;;8.30;99.90;;;;;;5097331;28;20035;-85
2023/02/03 04:37:48;;;;;;;6.95;1.58;;;8.30;99.90;;;;;;5114845;28;20066;-85
2023/02/03 04:40:15;;;;;;;10.55;2.20;;;8.30;99.90;;;;;;5090728;28;20044;-84
2023/02/03 04:42:42;;;;;;;10.13;2.05;;;8.30;99.90;;;;;;5073325;28;20041;-85
2023/02/03 04:45:10;;;;;;;11.63;2.03;;;8.30;99.90;;;;;;5090386;28;20050;-85
2023/02/03 04:47:38;;;;;;;9.13;1.77;;;8.30;99.90;;;;;;5092290;28;20085;-85
2023/02/03 04:50:05;;;;;;;9.30;1.70;;;8.30;99.90;;;;;;5109917;28;20487;-85
2023/02/03 04:52:31;;;;;;;9.93;1.90;;;8.30;99.90;;;;;;5109703;28;20036;-85
2023/02/03 04:54:58;;;;;;;9.32;1.70;;;8.40;99.90;;;;;;5110197;28;20047;-85
2023/02/03 04:57:25;;;;;;;9.35;1.80;;;8.30;99.90;;;;;;5109444;28;20097;-85
2023/02/03 04:59:51;;;;;;;9.63;1.70;;;8.30;99.90;;;;;;5093110;28;20048;-85
2023/02/03 05:02:18;;;;;;;8.30;2.00;;;8.40;99.90;;;;;;5126186;28;20036;-85
2023/02/03 05:04:45;;;;;;;10.10;2.13;;;8.40;99.90;;;;;;5109914;28;20089;-85
2023/02/03 05:07:12;;;;;;;14.20;2.42;;;8.40;99.90;;;;;;5093103;28;20492;-85
2023/02/03 05:09:38;;;;;;;10.85;2.65;;;8.40;99.90;;;;;;5092863;28;20939;-85
2023/02/03 05:12:05;;;;;;;6.07;1.63;;;8.40;99.90;;;;;;5109829;28;20072;-85
2023/02/03 05:14:32;;;;;;;8.95;1.90;;;8.40;99.90;;;;;;5092568;28;20055;-86
2023/02/03 05:16:58;;;;;;;6.40;1.60;;;8.40;99.90;;;;;;5109257;28;20043;-84
2023/02/03 05:19:25;;;;;;;5.53;1.70;;;8.40;99.90;;;;;;5109129;28;20054;-85
2023/02/03 05:21:52;;;;;;;5.55;1.60;;;8.40;99.90;;;;;;5126235;28;20523;-85
2023/02/03 05:24:19;;;;;;;11.80;1.90;;;8.40;99.90;;;;;;5109305;28;20036;-85
2023/02/03 05:26:45;;;;;;;6.45;1.73;;;8.50;99.90;;;;;;5109278;28;20476;-85
2023/02/03 05:29:12;;;;;;;12.30;1.55;;;8.50;99.90;;;;;;5109354;28;20035;-85
2023/02/03 05:31:39;;;;;;;8.10;1.48;;;8.50;99.90;;;;;;5092823;28;20036;-85
2023/02/03 05:34:05;;;;;;;10.30;1.60;;;8.50;99.90;;;;;;5126291;28;20044;-85
2023/02/03 05:36:32;;;;;;;8.57;2.08;;;8.50;99.90;;;;;;5092309;28;20496;-85
2023/02/03 05:38:59;;;;;;;6.85;1.60;;;8.50;99.90;;;;;;5109277;28;20089;-85
2023/02/03 05:44:11;;;;;;;7.93;1.75;;;8.50;99.90;;;;;;5126210;28;20044;-85
2023/02/03 05:46:38;;;;;;;11.40;2.20;;;8.50;99.90;;;;;;5109052;28;20500;-85
2023/02/03 05:49:04;;;;;;;9.77;2.15;;;8.50;99.90;;;;;;5092069;28;20097;-85
2023/02/03 05:51:31;;;;;;;9.63;2.15;;;8.20;99.90;;;;;;5125720;28;20040;-85
2023/02/03 05:53:58;;;;;;;6.68;1.58;;;8.50;99.90;;;;;;5109388;28;20050;-86
2023/02/03 05:56:25;;;;;;;11.73;1.90;;;8.40;99.90;;;;;;5126057;28;20046;-85
2023/02/03 05:58:52;;;;;;;8.82;1.92;;;8.40;99.90;;;;;;5111373;28;20043;-85
2023/02/03 06:01:19;;;;;;;6.72;1.98;;;8.40;99.90;;;;;;5130150;28;20047;-85
2023/02/03 06:03:46;;;;;;;12.38;2.10;;;8.40;99.90;;;;;;5130247;28;20131;-86
2023/02/03 06:06:14;;;;;;;11.82;1.98;;;8.40;99.90;;;;;;5129914;28;20036;-85
2023/02/03 06:08:42;;;;;;;10.57;2.15;;;8.40;99.90;;;;;;5113003;28;20554;-85
2023/02/03 06:11:09;;;;;;;8.27;1.55;;;8.40;99.90;;;;;;5113165;28;20044;-86
2023/02/03 06:13:35;;;;;;;7.25;2.08;;;8.40;99.90;;;;;;5096317;28;20551;-85
2023/02/03 06:16:03;;;;;;;10.80;2.28;;;8.40;99.90;;;;;;5130085;28;20095;-85
2023/02/03 06:18:30;;;;;;;9.95;1.90;;;8.40;99.90;;;;;;5112710;28;20051;-85
2023/02/03 06:20:57;;;;;;;7.40;1.77;;;8.40;99.90;;;;;;5129639;28;20058;-85
2023/02/03 06:23:23;;;;;;;9.48;2.28;;;8.40;99.90;;;;;;5113059;28;20048;-85
2023/02/03 06:25:51;;;;;;;12.32;2.10;;;8.40;99.90;;;;;;5095924;28;20040;-84
2023/02/03 06:28:18;;;;;;;12.85;2.22;;;8.40;99.90;;;;;;5112716;28;20404;-85
2023/02/03 06:30:48;;;;;;;10.88;2.25;;;8.40;99.90;;;;;;5112310;28;20032;-84
2023/02/03 06:33:14;;;;;;;14.15;2.75;;;8.40;99.90;;;;;;5112736;28;20036;-85
2023/02/03 06:35:41;;;;;;;12.80;2.25;;;8.40;99.90;;;;;;5096142;28;20122;-85
2023/02/03 06:38:08;;;;;;;11.77;2.45;;;8.40;99.90;;;;;;5112443;28;20028;-85
2023/02/03 06:40:34;;;;;;;13.85;2.72;;;8.40;99.90;;;;;;5112218;28;20039;-85
2023/02/03 06:43:01;;;;;;;11.90;2.33;;;8.30;99.90;;;;;;5112189;28;20119;-85
2023/02/03 06:45:28;;;;;;;7.78;2.05;;;8.40;99.90;;;;;;5095916;28;20044;-85
2023/02/03 06:47:54;;;;;;;10.07;2.05;;;8.30;99.90;;;;;;5095739;28;20036;-85
2023/02/03 06:50:21;;;;;;;8.55;2.03;;;8.30;99.90;;;;;;5096026;28;20123;-86
2023/02/03 06:52:49;;;;;;;7.28;1.75;;;8.30;99.90;;;;;;5112090;28;20125;-85
2023/02/03 06:55:15;;;;;;;5.97;1.83;;;8.30;99.90;;;;;;5112132;28;20131;-86
2023/02/03 06:57:44;;;;;;;10.15;1.88;;;8.40;99.90;;;;;;5112282;28;20135;-85
2023/02/03 07:00:12;;;;;;;12.23;2.13;;;8.30;99.90;;;;;;5112192;28;20058;-85
2023/02/03 07:02:39;;;;;;;12.70;2.03;;;8.40;99.90;;;;;;5111895;28;20064;-86
2023/02/03 07:05:06;;;;;;;9.32;2.22;;;8.40;99.90;;;;;;5095797;28;20078;-85
2023/02/03 07:07:33;;;;;;;9.20;1.90;;;8.40;99.90;;;;;;5111921;28;20043;-84
2023/02/03 07:10:01;;;;;;;8.88;1.83;;;8.40;99.90;;;;;;5111015;28;20080;-85
2023/02/03 07:12:28;;;;;;;9.75;2.33;;;8.40;99.90;;;;;;5111850;28;20488;-86
2023/02/03 07:14:54;;;;;;;4.85;1.65;;;8.40;99.90;;;;;;5111145;28;20043;-85
2023/02/03 07:17:21;;;;;;;20.85;2.30;;;8.50;99.90;;;;;;5095141;28;20044;-85
2023/02/03 07:19:48;;;;;;;10.63;1.85;;;8.50;99.90;;;;;;5094928;28;20055;-85
2023/02/03 07:22:15;;;;;;;11.88;2.08;;;8.60;99.90;;;;;;5111678;28;20055;-85
2023/02/03 07:24:41;;;;;;;10.13;1.70;;;8.50;99.90;;;;;;5095037;28;20199;-86
2023/02/03 07:27:08;;;;;;;9.48;2.08;;;8.60;99.90;;;;;;5094887;28;20055;-85
2023/02/03 07:29:35;;;;;;;11.75;1.95;;;8.60;99.90;;;;;;5111215;28;20047;-84
2023/02/03 07:32:02;;;;;;;12.25;2.20;;;8.60;99.90;;;;;;5095414;28;20044;-84
2023/02/03 07:34:28;;;;;;;16.65;1.70;;;8.70;99.90;;;;;;5111477;28;20071;-84
2023/02/03 07:36:56;;;;;;;11.45;2.05;;;8.70;99.90;;;;;;5094108;28;20381;-85
2023/02/03 07:39:23;;;;;;;17.88;2.28;;;8.70;99.90;;;;;;5110772;28;20032;-85
2023/02/03 07:41:49;;;;;;;15.30;2.35;;;8.70;99.90;;;;;;5084921;28;20041;-84
2023/02/03 07:44:16;;;;;;;17.95;2.58;;;8.70;99.90;;;;;;5069187;28;20024;-84
2023/02/03 07:46:44;;;;;;;7.93;1.90;;;8.70;99.90;;;;;;5103512;28;20036;-85
2023/02/03 07:49:12;;;;;;;10.07;1.70;;;8.80;99.90;;;;;;5096780;28;20440;-84
2023/02/03 07:51:39;;;;;;;6.15;1.50;;;8.90;99.90;;;;;;5137223;28;20470;-84
2023/02/03 07:54:06;;;;;;;12.13;2.40;;;8.90;99.90;;;;;;5120165;28;20075;-85
2023/02/03 07:56:33;;;;;;;11.82;1.98;;;9.00;99.90;;;;;;5093219;28;20050;-85
2023/02/03 07:58:59;;;;;;;17.27;1.98;;;8.90;99.90;;;;;;5098326;28;20044;-85
2023/02/03 08:01:26;;;;;;;11.35;1.90;;;8.90;99.90;;;;;;5110355;28;20353;-85
2023/02/03 08:03:53;;;;;;;7.57;1.92;;;8.90;99.90;;;;;;5127113;28;20488;-85
2023/02/03 08:06:20;;;;;;;15.35;2.60;;;8.90;99.90;;;;;;5078280;28;20038;-86
2023/02/03 08:08:46;;;;;;;10.65;2.15;;;8.90;99.90;;;;;;5106724;28;20125;-85
2023/02/03 08:11:13;;;;;;;4.78;1.50;;;8.90;99.90;;;;;;5093509;28;20036;-85
2023/02/03 08:13:40;;;;;;;8.57;2.33;;;8.80;99.90;;;;;;5084830;28;20051;-87
2023/02/03 08:16:07;;;;;;;11.60;1.90;;;8.80;99.90;;;;;;5101000;28;20112;-86
2023/02/03 08:18:36;;;;;;;15.40;2.47;;;8.80;99.90;;;;;;5110541;28;20039;-86
2023/02/03 08:21:03;;;;;;;9.07;2.33;;;8.80;99.90;;;;;;5093569;28;20093;-86
2023/02/03 08:23:30;;;;;;;12.35;1.95;;;8.80;99.90;;;;;;5110683;28;20119;-85
2023/02/03 08:25:57;;;;;;;17.30;2.50;;;8.90;99.90;;;;;;5127421;28;20121;-87
2023/02/03 08:28:24;;;;;;;11.25;1.98;;;8.80;99.90;;;;;;5100610;28;20040;-82
2023/02/03 08:30:51;;;;;;;10.85;2.10;;;8.90;99.90;;;;;;5089602;28;20033;-83
2023/02/03 08:33:18;;;;;;;8.90;1.88;;;8.90;99.90;;;;;;5093945;28;20480;-82
2023/02/03 08:35:47;;;;;;;9.70;2.08;;;8.90;99.90;;;;;;5126405;28;20123;-81
2023/02/03 08:38:14;;;;;;;15.02;2.45;;;8.90;99.90;;;;;;5109631;28;20036;-82
2023/02/03 08:40:41;;;;;;;11.57;2.33;;;8.90;99.90;;;;;;5126765;28;20474;-82
2023/02/03 08:43:07;;;;;;;13.82;2.55;;;8.90;99.90;;;;;;5126203;28;20036;-81
2023/02/03 08:45:34;;;;;;;16.45;2.60;;;8.90;99.90;;;;;;5109740;28;20047;-81
2023/02/03 08:48:01;;;;;;;8.50;1.90;;;8.90;99.90;;;;;;5092507;28;20032;-82
2023/02/03 08:50:28;;;;;;;17.88;2.30;;;8.90;99.90;;;;;;5109426;28;20936;-82
2023/02/03 08:52:54;;;;;;;11.77;2.45;;;8.90;99.90;;;;;;5126295;28;20036;-81
2023/02/03 08:55:21;;;;;;;11.13;2.33;;;9.00;99.90;;;;;;5109488;28;20404;-82
2023/02/03 08:57:48;;;;;;;17.67;2.47;;;8.90;99.90;;;;;;5126381;28;20712;-82
2023/02/03 09:00:15;;;;;;;8.70;1.95;;;8.90;99.90;;;;;;5109266;28;20051;-82
2023/02/03 09:02:42;;;;;;;15.10;3.05;;;9.00;99.90;;;;;;5109468;28;20028;-82
2023/02/03 09:05:09;;;;;;;13.27;2.33;;;9.00;99.90;;;;;;5100931;28;20098;-82
2023/02/03 09:07:35;;;;;;;15.32;2.85;;;9.00;99.90;;;;;;5089462;28;20128;-82
2023/02/03 09:10:02;;;;;;;11.45;1.98;;;9.00;99.90;;;;;;5072698;28;20060;-82
2023/02/03 09:12:29;;;;;;;19.23;2.75;;;9.00;99.90;;;;;;5105650;28;20079;-82
2023/02/03 09:14:56;;;;;;;9.27;2.90;;;9.00;99.90;;;;;;5072479;28;20123;-82
2023/02/03 09:17:22;;;;;;;10.68;2.25;;;9.00;99.90;;;;;;5094853;28;20067;-82
2023/02/03 09:19:49;;;;;;;15.80;2.83;;;9.10;99.90;;;;;;5125830;28;20052;-80
2023/02/03 09:22:16;;;;;;;7.68;2.00;;;9.00;99.90;;;;;;5125790;28;20040;-82
2023/02/03 09:24:42;;;;;;;15.93;2.58;;;9.00;99.90;;;;;;5092453;28;20043;-82
2023/02/03 09:27:09;;;;;;;19.63;2.88;;;9.00;99.90;;;;;;5092303;28;20050;-82
2023/02/03 09:29:36;;;;;;;19.33;2.50;;;9.00;99.90;;;;;;5125863;28;20040;-82
2023/02/03 09:32:07;;;;;;;19.05;3.00;;;9.00;99.90;;;;;;5108499;28;20518;-82
2023/02/03 09:34:34;;;;;;;14.45;2.20;;;9.00;99.90;;;;;;5092603;28;20044;-82
2023/02/03 09:37:01;;;;;;;12.73;2.67;;;9.00;99.90;;;;;;5108913;28;20487;-82
2023/02/03 09:39:27;;;;;;;13.60;2.30;;;9.00;99.90;;;;;;5108836;28;20040;-82
2023/02/03 09:42:24;;;;;;;19.63;3.03;;;9.00;99.90;;;;;;5090185;28;20097;-81
2023/02/03 09:44:56;;;;;;;10.18;1.58;;;9.10;99.90;;;;;;5108025;28;20181;-82
2023/02/03 09:47:27;;;;;;;18.38;2.45;;;9.10;99.90;;;;;;5122535;28;20044;-82
2023/02/03 09:50:01;;;;;;;15.68;2.20;;;9.10;99.90;;;;;;5124577;28;20036;-81
2023/02/03 09:52:36;;;;;;;8.13;2.45;;;9.10;99.90;;;;;;5115032;28;20040;-82
2023/02/03 09:55:05;;;;;;;10.50;2.20;;;9.10;99.90;;;;;;5088541;28;20040;-82
2023/02/03 09:57:41;;;;;;;17.80;2.35;;;9.20;99.90;;;;;;5112443;28;20039;-82
2023/02/03 10:00:25;;;;;;;14.70;2.78;;;9.20;99.90;;;;;;5108494;28;20089;-82
2023/02/03 10:02:55;;;;;;;15.80;2.33;;;9.20;99.90;;;;;;5125287;28;20044;-82
2023/02/03 10:05:31;;;;;;;16.17;2.65;;;9.20;99.90;;;;;;5108265;28;20524;-82
2023/02/03 10:08:06;;;;;;;17.17;2.63;;;9.20;99.90;;;;;;5113396;28;20032;-82
2023/02/03 10:11:15;;;;;;;10.88;2.35;;;9.20;99.90;;;;;;5108320;28;20043;-82
2023/02/03 10:14:04;;;;;;;26.98;2.78;;;9.30;99.90;;;;;;5104698;28;20045;-82
2023/02/03 10:17:08;;;;;;;19.75;2.55;;;9.20;99.90;;;;;;5088529;28;20558;-82
2023/02/03 10:19:48;;;;;;;19.90;2.65;;;9.20;99.90;;;;;;5104104;28;20599;-82
2023/02/03 10:22:21;;;;;;;14.43;2.40;;;9.10;99.90;;;;;;5108317;28;20388;-82
2023/02/03 10:24:54;;;;;;;17.30;3.15;;;9.10;99.90;;;;;;5089032;28;20071;-82
2023/02/03 10:27:23;;;;;;;12.55;3.00;;;9.10;99.90;;;;;;5104948;28;20393;-81
2023/02/03 10:30:19;;;;;;;25.35;3.60;;;9.10;99.90;;;;;;5107022;28;20040;-82
2023/02/03 10:33:15;;;;;;;30.88;3.60;;;9.20;99.90;;;;;;5107846;28;20419;-82
2023/02/03 10:35:52;;;;;;;23.67;2.42;;;9.20;99.90;;;;;;5102752;28;20044;-82
2023/02/03 10:38:30;;;;;;;15.68;2.92;;;9.30;99.90;;;;;;5125751;28;20489;-82
2023/02/03 10:40:57;;;;;;;17.33;3.22;;;9.30;99.90;;;;;;5108289;28;20129;-82
2023/02/03 10:46:09;;;;;;;19.55;2.78;;;9.40;99.90;;;;;;5094218;28;20047;-82
2023/02/03 10:48:36;;;;;;;16.27;2.53;;;9.40;99.90;;;;;;5096633;28;20454;-82
2023/02/03 10:51:03;;;;;;;23.83;2.78;;;9.40;99.90;;;;;;5107909;28;20044;-81
2023/02/03 10:53:34;;;;;;;16.77;2.78;;;9.40;99.90;;;;;;5111844;28;20048;-82
2023/02/03 10:56:08;;;;;;;19.83;3.33;;;9.40;99.90;;;;;;5112010;28;20032;-82
2023/02/03 10:58:37;;;;;;;19.75;2.78;;;9.40;99.90;;;;;;5108678;28;20532;-82
2023/02/03 11:01:12;;;;;;;20.38;2.42;;;9.40;99.90;;;;;;5110332;28;20036;-81
2023/02/03 11:03:53;;;;;;;14.18;2.55;;;9.40;99.90;;;;;;5108766;28;20050;-82
2023/02/03 11:06:20;;;;;;;16.55;2.90;;;9.40;99.90;;;;;;5091396;28;20072;-83
2023/02/03 11:08:49;;;;;;;22.67;3.05;;;9.40;99.90;;;;;;5074913;28;20079;-82
2023/02/03 11:11:25;;;;;;;26.73;3.47;;;9.40;99.90;;;;;;5091380;28;20369;-82
2023/02/03 11:14:10;;;;;;;;;;;9.40;99.90;;;;;;5127359;28;21575;-82
2023/02/03 11:16:37;;;;;;;26.83;3.17;;;9.40;99.90;;;;;;5128648;28;20011;-82
2023/02/03 11:19:06;;;;;;;19.20;2.42;;;9.40;99.90;;;;;;5111354;28;20060;-82
2023/02/03 11:21:39;;;;;;;20.60;3.60;;;9.40;99.90;;;;;;5124890;28;20101;-82
2023/02/03 11:24:23;;;;;;;20.92;2.83;;;9.40;99.90;;;;;;5126995;28;20042;-81
2023/02/03 11:27:01;;;;;;;14.10;3.05;;;9.40;99.90;;;;;;5128409;28;20492;-81
2023/02/03 11:29:31;;;;;;;23.75;3.80;;;9.40;99.90;;;;;;5110286;28;20297;-82
2023/02/03 11:32:02;;;;;;;21.25;3.45;;;9.30;99.90;;;;;;5111328;28;20377;-82
2023/02/03 11:34:37;;;;;;;19.35;3.17;;;9.30;99.90;;;;;;5108501;28;20571;-82
2023/02/03 11:37:52;;;;;;;18.27;2.55;;;9.30;99.90;;;;;;5108621;28;20071;-82
2023/02/03 11:40:19;;;;;;;18.25;3.50;;;9.30;99.90;;;;;;5101409;28;20048;-82
2023/02/03 11:42:49;;;;;;;19.10;3.00;;;9.30;99.90;;;;;;5110961;28;20507;-82
2023/02/03 11:45:42;;;;;;;15.32;2.60;;;9.30;99.90;;;;;;5127352;28;20043;-82
2023/02/03 11:48:26;;;;;;;25.13;3.65;;;9.30;99.90;;;;;;5127886;28;20415;-82
2023/02/03 11:51:18;;;;;;;23.10;3.65;;;9.30;99.90;;;;;;5110651;28;20047;-82
2023/02/03 11:53:54;;;;;;;24.17;3.90;;;9.30;99.90;;;;;;5127865;28;20040;-82
2023/02/03 11:56:29;;;;;;;;;;;9.30;99.90;;;;;;5127067;28;20036;-81
2023/02/03 11:59:20;;;;;;;28.88;3.97;;;9.30;99.90;;;;;;5127511;28;20305;-82
2023/02/03 12:01:59;;;;;;;24.63;2.85;;;9.20;99.90;;;;;;5127401;28;20047;-81
2023/02/03 12:04:47;;;;;;;15.02;3.60;;;9.20;99.90;;;;;;5127243;28;20032;-82
2023/02/03 12:07:48;;;;;;;20.55;3.33;;;9.30;99.90;;;;;;5127176;28;20040;-81
2023/02/03 12:10:26;;;;;;;20.33;3.13;;;9.30;99.90;;;;;;5110453;28;20052;-82
2023/02/03 12:13:27;;;;;;;20.45;2.80;;;9.40;99.90;;;;;;5110365;28;20056;-82
2023/02/03 12:16:03;;;;;;;19.63;3.50;;;9.40;99.90;;;;;;5110531;28;20044;-82
2023/02/03 12:19:09;;;;;;;19.15;3.28;;;9.40;99.90;;;;;;5144194;28;20069;-82
2023/02/03 12:22:05;;;;;;;15.02;1.90;;;9.30;99.90;;;;;;5118663;28;20086;-82
2023/02/03 12:24:57;;;;;;;16.67;2.55;;;9.30;99.90;;;;;;5122127;28;20111;-82
2023/02/03 12:27:53;;;;;;;25.23;2.75;;;9.20;99.90;;;;;;5126772;28;20507;-82
2023/02/03 12:30:50;;;;;;;12.40;2.38;;;9.10;99.90;;;;;;5126868;28;20047;-81
2023/02/03 12:33:27;;;;;;;14.68;2.45;;;9.10;99.90;;;;;;5109441;28;20048;-82
2023/02/03 12:36:08;;;;;;;25.17;2.80;;;9.10;99.90;;;;;;5126610;28;20044;-81
2023/02/03 12:38:45;;;;;;;9.40;2.25;;;9.00;99.90;;;;;;5126701;28;20039;-83
2023/02/03 12:41:24;;;;;;;21.80;3.90;;;9.00;99.90;;;;;;5110035;28;20071;-82
2023/02/03 12:43:55;;;;;;;19.75;2.67;;;9.00;99.90;;;;;;5109763;28;20510;-82
2023/02/03 12:46:36;;;;;;;23.85;3.50;;;9.00;99.90;;;;;;5126391;28;20499;-82
2023/02/03 12:49:26;;;;;;;16.05;2.85;;;9.00;99.90;;;;;;5109959;28;20051;-82
2023/02/03 12:51:55;;;;;;;28.05;3.65;;;9.00;99.90;;;;;;5109236;28;20105;-82
2023/02/03 12:54:31;;;;;;;13.75;3.35;;;9.10;99.90;;;;;;5109649;28;20043;-82
2023/02/03 12:57:25;;;;;;;27.63;4.10;;;9.20;99.90;;;;;;5126940;28;20051;-82
2023/02/03 13:00:20;;;;;;;21.48;3.67;;;9.20;99.90;;;;;;5109068;28;20404;-83
2023/02/03 13:02:56;;;;;;;17.95;2.70;;;9.30;99.90;;;;;;5126504;28;20063;-82
2023/02/03 13:05:39;;;;;;;14.45;2.65;;;9.30;99.90;;;;;;5126154;28;20173;-82
2023/02/03 13:08:37;;;;;;;14.77;2.58;;;9.30;99.90;;;;;;5125703;28;20082;-82
2023/02/03 13:11:16;;;;;;;16.02;2.45;;;9.20;99.90;;;;;;5106096;28;20101;-82
2023/02/03 13:13:52;;;;;;;19.38;2.20;;;9.10;99.90;;;;;;5105787;28;20107;-82
2023/02/03 13:16:23;;;;;;;16.58;2.97;;;9.10;99.90;;;;;;5106304;28;20062;-82
2023/02/03 13:18:55;;;;;;;17.55;3.22;;;8.90;99.90;;;;;;5105690;28;20043;-82
2023/02/03 13:21:22;;;;;;;19.90;2.97;;;8.80;99.90;;;;;;5112656;28;20040;-80
2023/02/03 13:23:50;;;;;;;20.33;3.67;;;8.80;99.90;;;;;;5092696;28;20040;-81